Latest Weather Observations for Sydney Olympic Park

IDN60901

Issued at 9:41 pm EST Wednesday 29 July 2015 (issued every 10 minutes, with the page automatically refreshed every 10 minutes)

About weather observations | Map of Sydney area stations | Latest observations for Sydney area | Other Formats
Station Details ID: 066212 Name: SYDNEY OLYMPIC PARK AWS (ARCHERY CENTRE) Lat: -33.83 Lon: 151.07 Height: 4.0 m
Data from the previous 72 hours. | See also: Recent months at Sydney Olympic Park
Date/Time
EST
Tmp

°C
App
Tmp
°C
Dew
Point
°C
Rel
Hum
%
Delta-T

°C
Wind Press
QNH
hPa
Press
MSL
hPa
Rain
since
9 am
mm
Dir
 
Spd
km/h
Gust
km/h
Spd
kts
Gust
kts
29/09:30pm 9.0 8.4 7.6 91 0.7 CALM 0 0 0 0 - - 0.0
29/09:00pm 9.7 9.2 8.0 89 0.8 CALM 0 2 0 1 - - 0.0
29/08:30pm 10.8 10.0 8.2 84 1.3 NE 2 7 1 4 - - 0.0
29/08:00pm 10.4 9.4 8.7 89 0.8 NNE 4 9 2 5 - - 0.0
29/07:30pm 9.4 8.9 7.7 89 0.8 CALM 0 0 0 0 - - 0.0
29/07:00pm 10.0 9.4 7.6 85 1.1 CALM 0 2 0 1 - - 0.0
29/06:30pm 11.3 10.7 7.4 77 1.9 CALM 0 0 0 0 - - 0.0
29/06:00pm 13.4 12.5 7.6 68 2.8 ENE 2 9 1 5 - - 0.0
29/05:30pm 14.1 12.5 7.9 66 3.1 ENE 6 11 3 6 - - 0.0
29/05:00pm 14.6 12.3 7.6 63 3.5 E 9 13 5 7 - - 0.0
29/04:30pm 15.4 12.7 7.4 59 4.0 E 11 15 6 8 - - 0.0
29/04:00pm 16.0 13.3 7.2 56 4.4 E 11 17 6 9 - - 0.0
29/03:30pm 18.1 16.9 6.6 47 5.7 WNW 2 7 1 4 - - 0.0
29/03:00pm 17.4 15.6 5.4 45 5.8 NW 4 7 2 4 - - 0.0
29/02:30pm 18.1 16.7 5.7 44 6.0 NW 2 7 1 4 - - 0.0
29/02:00pm 17.9 16.4 7.0 49 5.4 NNW 4 9 2 5 - - 0.0
29/01:30pm 17.2 15.1 5.8 47 5.5 ENE 6 9 3 5 - - 0.0
29/01:00pm 16.5 14.7 5.2 47 5.4 E 4 7 2 4 - - 0.0
29/12:30pm 17.5 16.0 7.0 50 5.2 NW 4 9 2 5 - - 0.0
29/12:00pm 16.7 14.8 6.8 52 4.9 WNW 6 9 3 5 - - 0.0
29/11:30am 15.4 13.4 6.9 57 4.2 W 7 13 4 7 - - 0.0
29/11:00am 15.3 13.3 7.1 58 4.0 WNW 7 13 4 7 - - 0.0
29/10:30am 13.9 11.5 7.2 64 3.3 NW 9 15 5 8 - - 0.0
29/10:00am 12.3 9.8 6.6 68 2.7 NW 9 13 5 7 - - 0.0
29/09:30am 11.3 8.6 5.8 69 2.6 NW 9 13 5 7 - - 0.0
29/09:00am 10.1 6.6 5.5 73 2.1 WNW 13 17 7 9 - - 0.0
29/08:30am 8.9 5.5 5.8 81 1.4 NW 13 19 7 10 - - 0.0
29/08:00am 7.0 4.4 5.9 93 0.5 WNW 9 11 5 6 - - 0.0
29/07:30am 6.0 3.5 5.0 93 0.4 NW 7 9 4 5 - - 0.0
29/07:00am 5.9 3.4 4.9 93 0.4 NW 7 9 4 5 - - 0.0
29/06:30am 6.1 3.7 5.2 94 0.4 NW 7 13 4 7 - - 0.0
29/06:00am 5.8 3.0 5.1 95 0.3 NW 9 13 5 7 - - 0.0
29/05:30am 5.6 3.1 4.9 95 0.3 WNW 7 9 4 5 - - 0.0
29/05:00am 5.9 3.7 5.5 97 0.2 WNW 6 9 3 5 - - 0.0
29/04:30am 5.5 3.3 5.1 97 0.2 NW 6 9 3 5 - - 0.0
29/04:00am 5.3 4.1 4.7 96 0.3 CALM 0 0 0 0 - - 0.0
29/03:30am 5.4 3.1 4.8 96 0.3 WNW 6 9 3 5 - - 0.0
29/03:00am 5.0 3.4 4.4 96 0.3 NNW 2 7 1 4 - - 0.0
29/02:30am 5.2 2.9 4.6 96 0.3 WNW 6 9 3 5 - - 0.0
29/02:00am 5.4 4.2 4.8 96 0.3 CALM 0 0 0 0 - - 0.0
29/01:30am 5.0 2.4 4.4 96 0.3 WNW 7 9 4 5 - - 0.0
29/01:00am 5.2 3.6 4.6 96 0.3 NW 2 7 1 4 - - 0.0
29/12:30am 5.4 4.2 4.8 96 0.3 CALM 0 0 0 0 - - 0.0
29/12:00am 5.4 4.2 4.8 96 0.3 CALM 0 0 0 0 - - 0.0
 
Date/Time
EST
Tmp

°C
App
Tmp
°C
Dew
Point
°C
Rel
Hum
%
Delta-T

°C
Wind Press
QNH
hPa
Press
MSL
hPa
Rain
since
9 am
mm
Dir
 
Spd
km/h
Gust
km/h
Spd
kts
Gust
kts
28/11:30pm 5.7 4.2 5.0 95 0.3 NW 2 7 1 4 - - 0.0
28/11:00pm 6.0 4.9 5.3 95 0.3 CALM 0 6 0 3 - - 0.0
28/10:30pm 5.8 3.6 5.1 95 0.3 NW 6 7 3 4 - - 0.0
28/10:00pm 6.2 5.2 5.5 95 0.3 CALM 0 2 0 1 - - 0.0
28/09:30pm 6.4 5.4 5.5 94 0.4 CALM 0 0 0 0 - - 0.0
28/09:00pm 6.5 5.4 5.1 91 0.6 CALM 0 0 0 0 - - 0.0
28/08:30pm 6.9 5.9 5.5 91 0.6 CALM 0 0 0 0 - - 0.0
28/08:00pm 7.4 6.5 6.0 91 0.6 CALM 0 0 0 0 - - 0.0
28/07:30pm 7.7 6.7 5.8 88 0.9 CALM 0 0 0 0 - - 0.0
28/07:00pm 8.5 7.7 6.3 86 1.0 CALM 0 0 0 0 - - 0.0
28/06:30pm 9.3 8.4 6.0 80 1.5 CALM 0 0 0 0 - - 0.0
28/06:00pm 10.9 9.5 5.4 69 2.5 SE 2 9 1 5 - - 0.0
28/05:30pm 12.8 9.9 4.8 58 3.7 SE 9 15 5 8 - - 0.0
28/05:00pm 13.5 10.6 4.4 54 4.2 SSE 9 19 5 10 - - 0.0
28/04:30pm 14.6 11.3 4.6 51 4.6 SE 11 15 6 8 - - 0.0
28/04:00pm 15.3 11.6 4.4 48 5.1 SSE 13 20 7 11 - - 0.0
28/03:30pm 15.6 11.2 4.6 48 5.1 SE 17 24 9 13 - - 0.0
28/03:00pm 15.1 11.4 4.2 48 5.0 SSE 13 20 7 11 - - 0.0
28/02:30pm 15.8 11.5 3.3 43 5.7 SSE 15 24 8 13 - - 0.0
28/02:00pm 16.9 14.0 4.6 44 5.8 W 9 20 5 11 - - 0.0
28/01:30pm 16.3 12.8 3.7 43 5.8 SSW 11 19 6 10 - - 0.0
28/01:00pm 16.1 12.2 3.2 42 5.9 WSW 13 20 7 11 - - 0.0
28/12:30pm 15.7 11.8 3.2 43 5.7 WSW 13 22 7 12 - - 0.0
28/12:00pm 15.3 12.0 4.4 48 5.1 SW 11 20 6 11 - - 0.0
28/11:30am 14.4 11.3 3.5 48 4.9 W 9 17 5 9 - - 0.0
28/11:00am 13.7 9.9 4.0 52 4.4 W 13 20 7 11 - - 0.0
28/10:30am 12.8 8.4 2.6 50 4.5 W 15 22 8 12 - - 0.0
28/10:00am 12.5 8.4 4.5 58 3.6 WNW 15 20 8 11 - - 0.0
28/09:30am 11.0 7.0 2.6 56 3.6 W 13 20 7 11 - - 0.0
28/09:00am 10.3 6.9 3.8 64 2.9 WNW 11 17 6 9 - - 0.0
28/08:30am 8.9 6.2 3.7 70 2.3 NW 7 11 4 6 - - 0.0
28/08:00am 6.6 3.9 3.9 83 1.1 WNW 7 13 4 7 - - 0.0
28/07:30am 3.8 1.4 2.3 90 0.6 NW 4 9 2 5 - - 0.0
28/07:00am 3.2 1.1 2.0 92 0.5 NW 2 7 1 4 - - 0.0
28/06:30am 3.4 1.8 2.2 92 0.5 CALM 0 0 0 0 - - 0.0
28/06:00am 3.5 1.9 2.3 92 0.5 CALM 0 0 0 0 - - 0.0
28/05:30am 3.7 2.0 1.6 86 0.8 CALM 0 0 0 0 - - 0.0
28/05:00am 3.6 1.9 2.0 89 0.6 CALM 0 6 0 3 - - 0.0
28/04:30am 3.3 1.6 2.0 91 0.5 CALM 0 6 0 3 - - 0.0
28/04:00am 3.4 1.7 1.9 90 0.6 CALM 0 0 0 0 - - 0.0
28/03:30am 3.7 2.0 1.7 87 0.8 CALM 0 0 0 0 - - 0.0
28/03:00am 3.9 2.1 1.4 84 1.0 CALM 0 0 0 0 - - 0.0
28/02:30am 4.7 3.0 2.1 83 1.0 CALM 0 0 0 0 - - 0.0
28/02:00am 5.1 1.7 1.8 79 1.3 WNW 9 11 5 6 - - 0.0
28/01:30am 5.1 1.7 1.6 78 1.4 NW 9 13 5 7 - - 0.0
28/01:00am 5.6 2.2 1.9 77 1.5 NW 9 15 5 8 - - 0.0
28/12:30am 5.5 2.1 2.0 78 1.4 NW 9 13 5 7 - - 0.0
28/12:00am 6.5 3.1 1.8 72 1.9 NW 9 15 5 8 - - 0.0
 
Date/Time
EST
Tmp

°C
App
Tmp
°C
Dew
Point
°C
Rel
Hum
%
Delta-T

°C
Wind Press
QNH
hPa
Press
MSL
hPa
Rain
since
9 am
mm
Dir
 
Spd
km/h
Gust
km/h
Spd
kts
Gust
kts
27/11:30pm 6.3 2.9 1.8 73 1.8 WNW 9 15 5 8 - - 0.0
27/11:00pm 6.9 3.5 1.6 69 2.1 WNW 9 17 5 9 - - 0.0
27/10:30pm 7.5 4.1 1.6 66 2.4 WNW 9 15 5 8 - - 0.0
27/10:00pm 8.0 4.6 1.6 64 2.6 WNW 9 13 5 7 - - 0.0
27/09:30pm 7.8 4.4 1.6 65 2.5 NW 9 15 5 8 - - 0.0
27/09:00pm 9.3 5.4 1.2 57 3.3 W 11 20 6 11 - - 0.0
27/08:30pm 9.2 5.8 1.6 59 3.1 W 9 20 5 11 - - 0.0
27/08:00pm 8.3 5.3 1.7 63 2.7 WNW 7 15 4 8 - - 0.0
27/07:30pm 9.6 6.5 1.3 56 3.4 WNW 7 15 4 8 - - 0.0
27/07:00pm 10.8 7.3 1.1 51 4.0 W 9 19 5 10 - - 0.0
27/06:30pm 11.3 7.3 0.7 48 4.4 WSW 11 19 6 10 - - 0.0
27/06:00pm 11.6 7.6 0.7 47 4.5 W 11 24 6 13 - - 0.0
27/05:30pm 12.0 8.0 0.8 46 4.7 W 11 20 6 11 - - 0.0
27/05:00pm 12.5 8.5 0.6 44 5.0 WSW 11 19 6 10 - - 0.0
27/04:30pm 13.5 8.6 -0.2 39 5.7 WSW 15 28 8 15 - - 0.0
27/04:00pm 13.9 9.0 -0.5 37 5.9 SW 15 28 8 15 - - 0.0
27/03:30pm 14.4 9.6 0.3 38 6.0 WSW 15 26 8 14 - - 0.0
27/03:00pm 14.5 9.2 -0.4 36 6.2 WSW 17 32 9 17 - - 0.0
27/02:30pm 14.6 9.7 -0.3 36 6.2 WSW 15 20 8 11 - - 0.0
27/02:00pm 14.6 9.7 -0.7 35 6.3 WSW 15 26 8 14 - - 0.0
27/01:30pm 14.0 9.6 0.3 39 5.8 WSW 13 24 7 13 - - 0.0
27/01:00pm 13.6 8.3 -0.8 37 5.9 WSW 17 30 9 16 - - 0.0
27/12:30pm 13.5 7.5 -1.3 36 6.0 WSW 20 32 11 17 - - 0.0
27/12:00pm 13.2 7.2 -1.5 36 5.9 WSW 20 35 11 19 - - 0.0
27/11:30am 13.3 7.4 -2.2 34 6.1 W 19 35 10 19 - - 0.0
27/11:00am 13.2 7.7 0.9 43 5.2 WNW 19 33 10 18 - - 0.0
27/10:30am 12.1 6.8 -0.4 42 5.1 WNW 17 33 9 18 - - 0.0
27/10:00am 12.0 7.2 0.5 45 4.8 WNW 15 26 8 14 - - 0.0
27/09:30am 11.0 7.5 1.0 50 4.2 W 9 15 5 8 - - 0.0
27/09:00am 11.2 8.3 1.5 51 4.1 NW 6 7 3 4 - - 0.0
27/08:30am 9.5 6.5 1.7 58 3.2 NW 7 13 4 7 - - 0.0
27/08:00am 6.8 3.4 1.7 70 2.1 WNW 9 13 5 7 - - 0.0
27/07:30am 4.2 1.0 0.7 78 1.3 NNW 7 9 4 5 - - 0.0
27/07:00am 3.8 1.9 0.7 80 1.2 CALM 0 0 0 0 - - 0.0
27/06:30am 4.9 0.9 0.7 74 1.6 NW 11 15 6 8 - - 0.0
27/06:00am 5.2 2.0 0.6 72 1.8 NW 7 7 4 4 - - 0.0
27/05:30am 6.1 1.7 0.2 66 2.3 WNW 13 19 7 10 - - 0.0
27/05:00am 5.3 1.3 0.7 72 1.8 WNW 11 13 6 7 - - 0.0
27/04:30am 6.3 3.0 0.4 66 2.3 NW 7 11 4 6 - - 0.0
27/04:00am 7.9 4.2 -0.1 57 3.1 WNW 9 15 5 8 - - 0.0
27/03:30am 7.7 3.7 0.4 60 2.9 WNW 11 15 6 8 - - 0.0
27/03:00am 7.4 3.9 1.0 64 2.6 WNW 9 17 5 9 - - 0.0
27/02:30am 7.8 4.7 0.1 58 3.0 NW 6 7 3 4 - - 0.0
27/02:00am 8.9 4.5 0.1 54 3.5 WNW 13 20 7 11 - - 0.0
27/01:30am 9.6 4.8 0.2 52 3.8 WNW 15 20 8 11 - - 0.0
27/01:00am 9.0 5.4 0.5 55 3.4 W 9 15 5 8 - - 0.0
27/12:30am 9.7 6.4 0.3 52 3.8 WSW 7 15 4 8 - - 0.0
27/12:00am 10.3 6.2 0.1 49 4.1 SW 11 17 6 9 - - 0.0
 
Date/Time
EST
Tmp

°C
App
Tmp
°C
Dew
Point
°C
Rel
Hum
%
Delta-T

°C
Wind Press
QNH
hPa
Press
MSL
hPa
Rain
since
9 am
mm
Dir
 
Spd
km/h
Gust
km/h
Spd
kts
Gust
kts
26/11:30pm 10.4 6.8 0.7 51 4.0 SW 9 15 5 8 - - 0.0
26/11:00pm 11.1 7.1 0.2 47 4.4 SW 11 20 6 11 - - 0.0
26/10:30pm 11.5 7.6 0.9 48 4.4 SW 11 20 6 11 - - 0.0
26/10:00pm 11.9 7.7 1.5 49 4.4 SW 13 22 7 12 - - 0.0

Latest Capital City Observations: Canberra | Sydney | Melbourne | Brisbane | Adelaide | Perth | Hobart | Darwin

Other Formats:

Comma delimited format used in spreadsheet applications
http://www.bom.gov.au/fwo/IDN60901/IDN60901.95765.axf

JavaScript Object Notation format (JSON) in row-major order
http://www.bom.gov.au/fwo/IDN60901/IDN60901.95765.json